Time;durP1;ratioP1;P1;durP2;ratioP2;P2;SDS_P1;SDS_P2;PMS_P1;PMS_P2;Temp;Humidity;BMP_temperature;BMP_pressure;BME280_temperature;BME280_humidity;BME280_pressure;Samples;Min_cycle;Max_cycle;Signal;HPM_P1;HPM_P2
2022/01/17 00:01:49;;;;;;;16.63;4.68;;;9.00;99.90;;;8.96;71.48;103030.16;5075342;28;20048;-63
2022/01/17 00:04:20;;;;;;;21.45;4.70;;;9.00;99.90;;;9.05;72.01;103046.31;5074177;28;20490;-64
2022/01/17 00:06:49;;;;;;;14.65;5.53;;;8.90;99.90;;;8.92;73.05;103042.31;5075575;28;20367;-63
2022/01/17 00:09:18;;;;;;;19.17;5.65;;;8.80;99.90;;;8.79;73.74;103053.25;5074360;28;20041;-63
2022/01/17 00:11:48;;;;;;;21.10;5.93;;;8.70;99.90;;;8.69;74.10;103058.16;5075570;28;20397;-64
2022/01/17 00:14:22;;;;;;;17.42;5.50;;;8.60;99.90;;;8.81;74.07;103050.66;5075136;28;20048;-63
2022/01/17 00:17:04;;;;;;;21.00;6.50;;;8.70;99.90;;;8.77;74.32;103059.31;5075253;28;20465;-65
2022/01/17 00:19:41;;;;;;;13.10;4.90;;;8.60;99.90;;;8.72;74.77;103051.25;5075143;28;20048;-65
2022/01/17 00:22:11;;;;;;;16.98;5.53;;;8.60;99.90;;;8.79;74.07;103060.28;5075091;28;20052;-65
2022/01/17 00:24:40;;;;;;;11.98;4.47;;;8.60;99.90;;;8.66;74.62;103076.47;5075247;28;20059;-65
2022/01/17 00:27:08;;;;;;;14.55;5.05;;;8.60;99.90;;;8.59;74.60;103066.53;5074709;28;20040;-66
2022/01/17 00:29:37;;;;;;;18.02;5.20;;;8.50;99.90;;;8.75;74.25;103074.22;5074657;28;20083;-62
2022/01/17 00:32:06;;;;;;;27.00;6.10;;;8.50;99.90;;;8.78;73.69;103075.22;5074490;28;20070;-62
2022/01/17 00:34:36;;;;;;;15.25;5.10;;;8.60;99.90;;;8.73;74.65;103070.63;5073377;28;20071;-63
2022/01/17 00:37:05;;;;;;;21.63;5.47;;;8.50;99.90;;;8.30;74.86;103003.84;5074439;28;20047;-63
2022/01/17 00:39:33;;;;;;;13.60;5.03;;;8.60;99.90;;;8.65;74.81;103072.06;5074647;28;20049;-63
2022/01/17 00:42:02;;;;;;;17.00;5.78;;;8.50;99.90;;;8.77;74.92;103061.94;5074646;28;20090;-63
2022/01/17 00:44:30;;;;;;;13.68;5.25;;;8.60;99.90;;;8.92;75.03;103068.72;5074820;28;20136;-63
2022/01/17 00:47:00;;;;;;;13.88;5.25;;;8.70;99.90;;;8.73;75.15;103060.06;5074326;28;20107;-63
2022/01/17 00:49:28;;;;;;;15.77;4.85;;;8.60;99.90;;;8.74;74.76;103068.03;5074522;28;20075;-63
2022/01/17 00:51:58;;;;;;;15.82;5.32;;;8.60;99.90;;;8.48;75.51;103036.22;5072620;28;20456;-63
2022/01/17 00:54:28;;;;;;;18.73;5.37;;;8.50;99.90;;;8.74;75.48;103069.75;5074164;28;20144;-62
2022/01/17 00:56:56;;;;;;;19.25;5.20;;;8.50;99.90;;;8.56;75.86;103069.03;5074680;28;20287;-62
2022/01/17 00:59:24;;;;;;;15.57;5.60;;;8.40;99.90;;;8.46;76.56;103075.69;5074160;28;20040;-62
2022/01/17 01:01:53;;;;;;;12.77;4.95;;;8.30;99.90;;;8.43;77.01;103075.59;5074219;28;20056;-62
2022/01/17 01:04:22;;;;;;;17.25;5.45;;;8.30;99.90;;;8.53;76.66;103063.66;5073930;28;20502;-62
2022/01/17 01:06:51;;;;;;;16.88;5.30;;;8.30;99.90;;;8.47;76.81;103056.41;5074417;28;20060;-62
2022/01/17 01:09:21;;;;;;;20.80;5.47;;;8.30;99.90;;;8.38;76.90;103053.41;5074606;28;20135;-62
2022/01/17 01:11:49;;;;;;;20.67;5.95;;;8.20;99.90;;;8.45;77.20;103052.81;5073623;28;20139;-62
2022/01/17 01:14:17;;;;;;;17.30;5.50;;;8.20;99.90;;;8.35;77.48;103053.28;5073874;28;20072;-62
2022/01/17 01:16:46;;;;;;;19.17;6.45;;;8.20;99.90;;;8.38;77.90;103057.78;5074107;28;20065;-62
2022/01/17 01:30:14;;;;;;;21.00;6.38;;;8.40;99.90;;;8.17;77.55;103000.69;5072726;28;20053;-62
2022/01/17 01:32:46;;;;;;;22.58;5.75;;;8.40;99.90;;;8.45;78.52;103071.28;5074249;28;20439;-61
2022/01/17 01:35:18;;;;;;;18.45;5.93;;;8.30;99.90;;;8.54;79.29;103069.00;5089826;28;20102;-61
2022/01/17 01:37:48;;;;;;;21.88;5.75;;;8.30;99.90;;;8.71;78.76;103067.03;5073618;28;20481;-61
2022/01/17 01:40:20;;;;;;;19.27;5.72;;;8.50;99.90;;;8.76;78.73;103070.72;5073940;28;20133;-61
2022/01/17 01:42:51;;;;;;;25.52;6.75;;;8.60;99.90;;;8.72;79.17;103084.63;5073319;28;20056;-61
2022/01/17 01:45:21;;;;;;;25.20;5.85;;;8.50;99.90;;;8.70;79.98;103083.69;5073277;28;20114;-61
2022/01/17 01:47:50;;;;;;;16.65;5.25;;;8.50;99.90;;;8.78;79.69;103091.06;5072112;28;20098;-62
2022/01/17 01:50:18;;;;;;;19.63;6.03;;;8.60;99.90;;;8.81;80.70;103088.53;5073164;28;20482;-61
2022/01/17 01:52:47;;;;;;;24.45;6.35;;;8.60;99.90;;;8.77;80.67;103094.53;5071921;28;20055;-61
2022/01/17 01:55:21;;;;;;;17.85;5.47;;;8.60;99.90;;;8.87;81.16;103090.50;5073327;28;20447;-62
2022/01/17 01:57:51;;;;;;;24.15;6.60;;;8.60;99.90;;;8.75;81.26;103095.31;5073562;28;20436;-62
2022/01/17 02:00:20;;;;;;;27.02;7.15;;;8.60;99.90;;;8.58;82.13;103099.94;5072981;28;20049;-62
2022/01/17 02:02:49;;;;;;;20.52;5.85;;;8.40;99.90;;;8.67;82.24;103102.03;5073093;28;20054;-61
2022/01/17 02:05:18;;;;;;;21.25;6.60;;;8.40;99.90;;;8.80;82.33;103094.66;5072748;28;20097;-62
2022/01/17 02:07:47;;;;;;;26.42;6.97;;;8.50;99.90;;;8.79;82.47;103084.03;5072956;28;20044;-61
2022/01/17 02:10:17;;;;;;;18.83;6.53;;;8.50;99.90;;;8.76;81.85;103084.81;5072729;28;20045;-62
2022/01/17 02:12:45;;;;;;;22.73;6.57;;;8.50;99.90;;;8.62;82.97;103078.09;5073019;28;20118;-62
2022/01/17 02:15:17;;;;;;;18.13;6.72;;;8.50;99.90;;;8.80;82.69;103089.38;5071473;28;20113;-62
2022/01/17 02:17:54;;;;;;;18.77;6.05;;;8.50;99.90;;;8.84;83.03;103080.75;5072291;28;20114;-62
2022/01/17 02:20:34;;;;;;;19.15;5.85;;;8.60;99.90;;;8.82;82.55;103081.50;5072585;28;20040;-62
2022/01/17 02:23:04;;;;;;;19.90;6.22;;;8.70;99.90;;;8.77;83.28;103072.50;5071623;28;20063;-61
2022/01/17 02:25:33;;;;;;;17.30;6.50;;;8.60;99.90;;;8.88;83.51;103066.78;5072425;28;20143;-62
2022/01/17 02:28:02;;;;;;;22.75;6.75;;;8.70;99.90;;;8.82;83.39;103069.22;5072551;28;20448;-61
2022/01/17 02:30:32;;;;;;;20.20;7.28;;;8.60;99.90;;;8.66;84.03;103068.56;5072244;28;20041;-61
2022/01/17 02:33:01;;;;;;;16.20;5.72;;;8.60;99.90;;;8.72;84.95;103063.53;5072298;28;20135;-61
2022/01/17 02:35:33;;;;;;;20.27;6.80;;;8.50;99.90;;;8.67;84.83;103065.97;5072221;28;20048;-62
2022/01/17 02:38:01;;;;;;;24.35;7.18;;;8.50;99.90;;;8.72;85.40;103063.53;5072247;28;20094;-61
2022/01/17 02:40:29;;;;;;;22.15;7.07;;;8.50;99.90;;;8.60;86.36;103071.88;5072686;28;20064;-61
2022/01/17 02:43:03;;;;;;;21.25;6.78;;;8.50;99.90;;;8.61;87.12;103056.94;5072043;28;20101;-61
2022/01/17 02:45:33;;;;;;;22.30;7.40;;;8.40;99.90;;;8.63;87.53;103068.47;5072192;28;20135;-62
2022/01/17 02:48:06;;;;;;;27.65;7.35;;;8.40;99.90;;;8.50;88.26;103076.72;5072292;28;20056;-61
2022/01/17 02:50:37;;;;;;;18.92;7.78;;;8.40;99.90;;;8.46;89.58;103075.69;5070929;28;20490;-62
2022/01/17 02:53:09;;;;;;;27.85;7.32;;;8.30;99.90;;;8.45;89.09;103058.09;5072009;28;20044;-61
2022/01/17 02:55:38;;;;;;;22.92;7.03;;;8.40;99.90;;;8.49;89.22;103073.19;5072117;28;20110;-62
2022/01/17 02:58:07;;;;;;;33.08;8.13;;;8.30;99.90;;;8.53;89.42;103087.41;5071994;28;20045;-62
2022/01/17 03:00:36;;;;;;;19.38;7.18;;;8.30;99.90;;;8.53;90.23;103093.59;5071906;28;20044;-62
2022/01/17 03:03:05;;;;;;;25.42;7.47;;;8.30;99.90;;;8.68;89.85;103072.16;5071987;28;20041;-61
2022/01/17 03:05:35;;;;;;;22.88;8.60;;;8.50;99.90;;;8.71;89.64;103077.56;5072419;28;20049;-61
2022/01/17 03:08:04;;;;;;;27.30;7.50;;;8.50;99.90;;;8.74;89.39;103085.59;5071817;28;20053;-61
2022/01/17 03:10:39;;;;;;;27.55;8.48;;;8.60;99.90;;;8.70;89.54;103087.22;5071940;28;20041;-62
2022/01/17 03:13:13;;;;;;;25.80;8.13;;;8.50;99.90;;;8.64;90.08;103099.25;5072479;28;20131;-61
2022/01/17 03:15:43;;;;;;;28.95;9.00;;;8.50;99.90;;;8.47;91.71;103098.63;5087858;28;20048;-61
2022/01/17 03:18:12;;;;;;;28.85;8.25;;;8.40;99.90;;;8.55;92.28;103096.28;5071858;28;20040;-62
2022/01/17 03:20:42;;;;;;;28.13;10.13;;;8.40;99.90;;;8.63;92.09;103090.44;5071578;28;20207;-61
2022/01/17 03:23:11;;;;;;;28.10;9.20;;;8.40;99.90;;;8.69;91.95;103093.31;5071608;28;20051;-62
2022/01/17 03:25:40;;;;;;;26.65;9.30;;;8.50;99.90;;;8.77;91.69;103098.88;5071762;28;20363;-61
2022/01/17 03:28:08;;;;;;;29.75;10.13;;;8.60;99.90;;;8.77;91.87;103093.63;5071363;28;20072;-62
2022/01/17 03:30:37;;;;;;;28.10;9.68;;;8.60;99.90;;;8.80;91.54;103083.19;5071511;28;20045;-62
2022/01/17 03:33:10;;;;;;;26.70;9.75;;;8.60;99.90;;;8.82;91.74;103077.16;5071249;28;20079;-62
2022/01/17 03:35:41;;;;;;;27.45;9.70;;;8.70;99.90;;;8.82;91.61;103071.88;5071454;28;20132;-62
2022/01/17 03:38:15;;;;;;;32.53;10.52;;;8.70;99.90;;;8.88;91.99;103072.06;5071690;28;20075;-62
2022/01/17 03:40:46;;;;;;;23.77;10.27;;;8.80;99.90;;;8.91;91.68;103050.19;5071817;28;20044;-62
2022/01/17 03:43:15;;;;;;;28.75;11.18;;;8.80;99.90;;;8.85;91.97;103063.16;5071589;28;20055;-61
2022/01/17 03:45:45;;;;;;;29.63;12.10;;;8.70;99.90;;;8.67;91.84;103023.75;5071907;28;20482;-61
2022/01/17 03:48:14;;;;;;;36.33;12.80;;;8.70;99.90;;;8.89;92.36;103059.78;5071461;28;20055;-62
2022/01/17 03:50:44;;;;;;;31.45;12.05;;;8.80;99.90;;;8.89;91.76;103067.69;5071410;28;20060;-62
2022/01/17 03:53:13;;;;;;;35.25;13.05;;;8.80;99.90;;;8.91;91.87;103066.03;5071243;28;20123;-62
2022/01/17 03:55:41;;;;;;;34.85;12.68;;;8.80;99.90;;;8.83;91.80;103073.66;5071445;28;20155;-62
2022/01/17 03:58:10;;;;;;;29.42;13.73;;;8.70;99.90;;;8.31;92.16;102981.91;5071335;28;20048;-62
2022/01/17 04:00:42;;;;;;;29.15;13.35;;;8.70;99.90;;;8.97;91.70;103060.97;5071216;28;20102;-63
2022/01/17 04:03:11;;;;;;;27.20;12.82;;;8.80;99.90;;;8.94;91.86;103071.44;5071537;28;20059;-64
2022/01/17 04:05:40;;;;;;;28.17;12.73;;;8.80;99.90;;;8.93;91.06;103064.34;5071506;28;20082;-63
2022/01/17 04:08:12;;;;;;;35.60;13.30;;;8.80;99.90;;;8.96;91.17;103065.34;5071278;28;20131;-63
2022/01/17 04:10:41;;;;;;;31.33;12.90;;;8.80;99.90;;;8.99;90.88;103056.66;5071588;28;20068;-63
2022/01/17 04:13:10;;;;;;;22.85;11.70;;;8.90;99.90;;;8.99;90.92;103061.94;5071161;28;20131;-63
2022/01/17 04:15:39;;;;;;;32.72;14.77;;;8.90;99.90;;;8.75;91.04;103076.84;5071422;28;20048;-64
2022/01/17 04:18:10;;;;;;;26.92;12.73;;;8.70;99.90;;;8.81;91.74;103072.69;5072048;28;20037;-63
2022/01/17 04:20:41;;;;;;;30.52;12.05;;;8.70;99.90;;;8.86;91.56;103067.59;5072028;28;20045;-64
2022/01/17 04:23:13;;;;;;;25.77;12.55;;;8.70;99.90;;;8.92;91.60;103081.91;5071732;28;20068;-63
2022/01/17 04:25:44;;;;;;;25.33;11.05;;;8.70;99.90;;;8.93;91.28;103082.81;5071421;28;20040;-62
2022/01/17 04:28:14;;;;;;;28.42;12.57;;;8.80;99.90;;;8.86;90.97;103079.06;5071390;28;20044;-62
2022/01/17 04:30:43;;;;;;;;;;;8.70;99.90;;;8.86;91.23;103067.59;5071666;28;20044;-62
2022/01/17 04:33:13;;;;;;;33.85;12.30;;;8.80;99.90;;;9.01;91.00;103091.91;5070933;28;19921;-62
2022/01/17 04:35:44;;;;;;;31.33;11.32;;;8.80;99.90;;;8.89;91.62;103096.72;5070853;28;20178;-62
2022/01/17 04:38:17;;;;;;;32.05;12.02;;;8.70;99.90;;;8.91;91.70;103095.03;5071111;28;20056;-62
2022/01/17 04:40:47;;;;;;;37.28;12.02;;;8.70;99.90;;;8.93;91.78;103089.00;5073577;28;20406;-62
2022/01/17 04:43:21;;;;;;;24.92;11.45;;;8.80;99.90;;;8.90;91.28;103095.91;5074550;28;20044;-62
2022/01/17 04:45:51;;;;;;;30.25;12.30;;;8.80;99.90;;;8.69;92.02;103093.31;5074801;28;20052;-62
2022/01/17 04:48:20;;;;;;;32.03;12.90;;;8.70;99.90;;;8.86;92.41;103100.19;5074564;28;20048;-62
2022/01/17 04:50:48;;;;;;;25.27;11.48;;;8.70;99.90;;;8.89;92.33;103099.38;5074431;28;20351;-63
2022/01/17 04:53:20;;;;;;;36.10;12.15;;;8.70;99.90;;;8.91;92.69;103103.88;5074093;28;20094;-62
2022/01/17 04:55:49;;;;;;;28.38;11.65;;;8.80;99.90;;;8.89;93.28;103097.63;5074498;28;20064;-62
2022/01/17 04:58:18;;;;;;;31.65;12.30;;;8.70;99.90;;;8.83;93.12;103091.22;5074173;28;20041;-62
2022/01/17 05:00:47;;;;;;;32.38;14.10;;;8.80;99.90;;;8.48;93.65;103028.31;5074336;28;20439;-62
2022/01/17 05:03:18;;;;;;;34.22;14.63;;;8.70;99.90;;;8.90;94.02;103098.53;5074013;28;20044;-62
2022/01/17 05:05:47;;;;;;;33.50;15.65;;;8.70;99.90;;;8.88;94.18;103101.09;5074352;28;20090;-62
2022/01/17 05:08:18;;;;;;;36.20;17.90;;;8.70;99.90;;;8.99;93.91;103104.16;5074467;28;20053;-62
2022/01/17 05:10:51;;;;;;;;;;;8.80;99.90;;;8.85;94.36;103111.56;5074348;28;20095;-61
2022/01/17 05:13:25;;;;;;;34.30;17.15;;;8.70;99.90;;;8.89;94.33;103109.94;5073729;28;20384;-62
2022/01/17 05:16:06;;;;;;;32.38;18.20;;;8.70;99.90;;;9.02;94.24;103118.38;5073806;28;20044;-62
2022/01/17 05:21:21;;;;;;;38.45;20.40;;;8.90;99.90;;;9.02;93.92;103117.47;5073686;28;20031;-61
2022/01/17 05:23:51;;;;;;;38.33;21.13;;;8.90;99.90;;;9.03;93.73;103114.00;5073814;28;20046;-61
2022/01/17 05:26:19;;;;;;;39.37;20.77;;;8.90;99.90;;;9.05;93.39;103114.97;5073711;28;20522;-61
2022/01/17 05:28:47;;;;;;;37.15;21.67;;;8.90;99.90;;;8.86;94.25;103125.66;5073733;28;20325;-61
2022/01/17 05:31:16;;;;;;;35.78;22.40;;;8.80;99.90;;;8.82;95.21;103121.09;5073826;28;20048;-61
2022/01/17 05:33:44;;;;;;;47.20;23.77;;;8.70;99.90;;;8.88;95.57;103116.94;5073614;28;20044;-61
2022/01/17 05:36:13;;;;;;;47.28;25.52;;;8.70;99.90;;;8.76;95.65;103124.41;5073423;28;20417;-61
2022/01/17 05:38:41;;;;;;;45.35;25.17;;;8.70;99.90;;;8.80;96.23;103114.88;5073360;28;20072;-61
2022/01/17 05:41:11;;;;;;;45.10;24.70;;;8.70;99.90;;;8.89;95.74;103116.13;5073688;28;20064;-61
2022/01/17 05:43:39;;;;;;;43.43;24.17;;;8.70;99.90;;;8.48;95.52;103041.50;5072296;28;20060;-62
2022/01/17 05:46:08;;;;;;;45.53;25.70;;;8.80;99.90;;;8.97;95.36;103108.47;5073275;28;20127;-61
2022/01/17 05:48:37;;;;;;;47.45;24.83;;;8.80;99.90;;;9.02;94.80;103109.53;5073555;28;20052;-61
2022/01/17 05:51:06;;;;;;;42.30;25.10;;;8.90;99.90;;;9.01;94.81;103106.03;5072238;28;20466;-61
2022/01/17 05:53:34;;;;;;;46.67;24.70;;;8.90;99.90;;;8.87;94.82;103094.03;5073108;28;20048;-61
2022/01/17 05:56:03;;;;;;;46.72;26.10;;;8.80;99.90;;;8.86;95.15;103089.63;5073372;28;20094;-61
2022/01/17 05:58:33;;;;;;;40.83;23.20;;;8.80;99.90;;;8.72;95.84;103097.81;5071864;28;20086;-62
2022/01/17 06:01:02;;;;;;;46.10;23.15;;;8.60;99.90;;;8.70;95.61;103112.69;5072036;28;20052;-61
2022/01/17 06:03:31;;;;;;;53.15;22.20;;;8.60;99.90;;;8.55;95.58;103117.38;5073060;28;20102;-61
2022/01/17 06:06:03;;;;;;;49.70;21.60;;;8.50;99.90;;;8.47;96.32;103108.25;5073274;28;20398;-61
2022/01/17 06:08:32;;;;;;;47.92;20.33;;;8.40;99.90;;;8.62;95.84;103108.84;5073292;28;20040;-61
2022/01/17 06:11:01;;;;;;;46.25;19.40;;;8.40;99.90;;;8.41;96.00;103122.09;5073230;28;20040;-61
2022/01/17 06:13:30;;;;;;;44.53;19.48;;;8.40;99.90;;;8.53;96.04;103116.41;5072523;28;20052;-61
2022/01/17 06:15:59;;;;;;;46.53;19.05;;;8.40;99.90;;;8.43;94.98;103133.59;5072694;28;20074;-61
2022/01/17 06:18:28;;;;;;;34.28;16.38;;;8.40;99.90;;;8.14;95.62;103098.13;5073406;28;20056;-61
2022/01/17 06:20:56;;;;;;;42.35;17.23;;;8.30;99.90;;;8.37;95.91;103129.81;5072606;28;20428;-61
2022/01/17 06:23:25;;;;;;;43.88;17.52;;;8.20;99.90;;;8.33;95.41;103151.63;5072764;28;20439;-61
2022/01/17 06:25:53;;;;;;;37.25;16.65;;;8.20;99.90;;;8.26;95.63;103145.22;5072833;28;20098;-61
2022/01/17 06:28:22;;;;;;;41.08;17.33;;;8.20;99.90;;;8.29;95.37;103162.88;5072993;28;20064;-61
2022/01/17 06:30:50;;;;;;;42.20;17.85;;;8.20;99.90;;;8.19;95.16;103159.81;5072710;28;20439;-61
2022/01/17 06:33:20;;;;;;;38.17;16.88;;;8.10;99.90;;;8.27;95.51;103151.34;5071129;28;20052;-62
2022/01/17 06:35:49;;;;;;;45.92;17.38;;;8.10;99.90;;;8.33;95.09;103162.16;5072589;28;20470;-62
2022/01/17 06:38:17;;;;;;;50.35;16.80;;;8.20;99.90;;;8.16;94.91;103122.81;5072349;28;20451;-61
2022/01/17 06:40:46;;;;;;;39.42;16.42;;;8.20;99.90;;;8.33;95.03;103157.78;5072040;28;20110;-62
2022/01/17 06:43:14;;;;;;;34.03;15.18;;;8.20;99.90;;;8.29;94.51;103161.13;5071986;28;20097;-61
2022/01/17 06:45:45;;;;;;;37.20;14.10;;;8.20;99.90;;;8.23;94.99;103151.22;5071947;28;20083;-61
2022/01/17 06:48:14;;;;;;;34.50;12.82;;;8.10;99.90;;;8.21;94.97;103142.34;5072384;28;20071;-61
2022/01/17 06:50:44;;;;;;;37.85;13.32;;;8.10;99.90;;;8.36;94.45;103152.66;5071992;28;20090;-61
2022/01/17 06:53:12;;;;;;;36.90;12.23;;;8.20;99.90;;;8.36;94.15;103157.03;5072090;28;20070;-61
2022/01/17 06:55:41;;;;;;;29.02;10.38;;;8.20;99.90;;;8.39;93.54;103168.59;5071710;28;20048;-61
2022/01/17 06:58:09;;;;;;;30.58;10.93;;;8.20;99.90;;;8.40;93.57;103190.59;5071817;28;20052;-61
2022/01/17 07:00:38;;;;;;;28.65;10.15;;;8.20;99.90;;;8.30;93.53;103199.88;5071666;28;20093;-61
2022/01/17 07:03:06;;;;;;;32.38;10.15;;;8.20;99.90;;;8.25;94.20;103201.41;5071702;28;20402;-61
2022/01/17 07:05:35;;;;;;;35.65;9.50;;;8.10;99.90;;;8.19;93.78;103222.19;5071688;28;20040;-62
2022/01/17 07:08:05;;;;;;;34.50;9.70;;;8.10;99.90;;;8.23;93.54;103235.56;5071616;28;20044;-62
2022/01/17 07:10:34;;;;;;;28.33;8.35;;;8.10;99.90;;;8.12;93.30;103221.03;5071804;28;20049;-62
2022/01/17 07:13:02;;;;;;;24.70;8.63;;;8.10;99.90;;;8.05;93.10;103202.25;5071797;28;20056;-62
2022/01/17 07:15:31;;;;;;;28.23;9.20;;;8.00;99.90;;;7.95;92.82;103187.78;5071654;28;20081;-61
2022/01/17 07:18:00;;;;;;;32.17;8.90;;;8.00;99.90;;;8.13;92.54;103212.28;5071607;28;20128;-62
2022/01/17 07:20:28;;;;;;;28.02;8.68;;;8.00;99.90;;;7.97;92.86;103201.94;5071601;28;20070;-62
2022/01/17 07:22:57;;;;;;;28.05;9.18;;;7.90;99.90;;;8.07;92.03;103206.75;5070485;28;20442;-62
2022/01/17 07:25:27;;;;;;;38.05;8.82;;;7.90;99.90;;;8.05;92.81;103200.50;5071985;28;20074;-61
2022/01/17 07:27:57;;;;;;;30.92;9.18;;;7.90;99.90;;;8.00;92.53;103204.69;5071554;28;20045;-62
2022/01/17 07:30:26;;;;;;;31.90;9.30;;;7.90;99.90;;;7.88;92.97;103222.59;5071621;28;20041;-61
2022/01/17 07:32:54;;;;;;;33.90;8.55;;;7.80;99.90;;;7.86;93.19;103216.34;5072169;28;20040;-61
2022/01/17 07:35:23;;;;;;;34.78;9.40;;;7.70;99.90;;;7.80;92.79;103221.34;5072038;28;20086;-62
2022/01/17 07:37:51;;;;;;;31.42;9.25;;;7.70;99.90;;;7.79;92.25;103234.47;5071809;28;20060;-62
2022/01/17 07:40:19;;;;;;;28.70;9.50;;;7.70;99.90;;;7.75;92.79;103251.88;5071314;28;20378;-61
2022/01/17 07:42:49;;;;;;;34.72;9.65;;;7.70;99.90;;;7.75;93.12;103246.59;5071702;28;20436;-62
2022/01/17 07:45:19;;;;;;;33.53;9.23;;;7.60;99.90;;;7.76;93.07;103244.88;5071577;28;20052;-62
2022/01/17 07:50:35;;;;;;;28.73;9.32;;;7.60;99.90;;;7.83;93.15;103253.13;5071212;28;20052;-62
2022/01/17 07:53:04;;;;;;;39.10;9.95;;;7.70;99.90;;;7.96;92.98;103244.91;5071196;28;20060;-61
2022/01/17 07:55:34;;;;;;;26.00;8.93;;;7.70;99.90;;;8.03;93.08;103249.63;5071402;28;20090;-63
2022/01/17 07:58:03;;;;;;;34.85;10.57;;;7.80;99.90;;;8.17;92.87;103240.56;5070059;28;20053;-62
2022/01/17 08:00:32;;;;;;;36.43;10.73;;;8.00;99.90;;;8.30;92.06;103236.78;5071552;28;20084;-61
2022/01/17 08:03:02;;;;;;;42.60;9.95;;;8.20;99.90;;;7.62;92.22;103195.94;5071678;28;20317;-61
2022/01/17 08:05:31;;;;;;;35.55;9.60;;;8.00;99.90;;;8.01;93.22;103250.41;5071325;28;20147;-60
2022/01/17 08:07:59;;;;;;;32.10;8.88;;;8.00;99.90;;;8.11;93.09;103281.56;5071597;28;20064;-60
2022/01/17 08:10:30;;;;;;;32.33;8.73;;;8.00;99.90;;;8.07;93.59;103248.03;5071275;28;20119;-61
2022/01/17 08:12:58;;;;;;;32.95;8.70;;;8.10;99.90;;;8.32;93.50;103250.03;5069699;28;20061;-61
2022/01/17 08:15:28;;;;;;;34.55;9.45;;;8.10;99.90;;;8.35;93.08;103255.41;5073157;28;20455;-60
2022/01/17 08:17:56;;;;;;;34.45;8.95;;;8.20;99.90;;;8.26;93.85;103263.84;5075104;28;20052;-60
2022/01/17 08:20:25;;;;;;;39.78;9.20;;;8.20;99.90;;;8.38;94.33;103256.44;5074798;28;20320;-62
2022/01/17 08:22:53;;;;;;;47.05;10.38;;;8.20;99.90;;;8.32;93.86;103258.84;5074663;28;20040;-61
2022/01/17 08:25:22;;;;;;;41.47;9.93;;;8.20;99.90;;;8.24;94.64;103262.84;5074832;28;20076;-61
2022/01/17 08:27:50;;;;;;;40.92;9.48;;;8.20;99.90;;;8.21;94.91;103262.69;5074604;28;20068;-60
2022/01/17 08:30:19;;;;;;;39.63;9.43;;;8.10;99.90;;;8.21;95.06;103262.69;5074563;28;20072;-61
2022/01/17 08:33:09;;;;;;;36.42;9.25;;;8.10;99.90;;;8.46;95.30;103264.72;5074647;28;20040;-61
2022/01/17 08:35:38;;;;;;;51.25;11.15;;;8.30;99.90;;;8.45;94.59;103254.97;5074934;28;20119;-62
2022/01/17 08:38:06;;;;;;;45.03;9.48;;;8.30;99.90;;;8.51;95.12;103263.16;5074749;28;20139;-62
2022/01/17 08:40:35;;;;;;;39.92;9.23;;;8.40;99.90;;;8.54;94.57;103264.19;5074976;28;20435;-61
2022/01/17 08:43:03;;;;;;;36.50;8.88;;;8.40;99.90;;;8.38;95.29;103255.56;5073414;28;20064;-62
2022/01/17 08:45:32;;;;;;;42.00;9.75;;;8.40;99.90;;;8.50;95.81;103256.97;5073562;28;20409;-61
2022/01/17 08:48:12;;;;;;;43.40;9.45;;;8.40;99.90;;;7.97;95.33;103161.50;5074785;28;20040;-61
2022/01/17 08:50:42;;;;;;;48.03;10.13;;;8.40;99.90;;;8.58;95.36;103265.22;5074814;28;20410;-61
2022/01/17 08:53:13;;;;;;;49.35;10.18;;;8.40;99.90;;;8.51;96.01;103274.63;5074532;28;20098;-61
2022/01/17 08:55:44;;;;;;;43.53;9.35;;;8.40;99.90;;;8.63;95.94;103266.31;5074495;28;20149;-61
2022/01/17 08:58:14;;;;;;;47.08;9.70;;;8.50;99.90;;;8.70;95.42;103271.00;5074421;28;20551;-62
2022/01/17 09:00:43;;;;;;;38.80;8.85;;;8.60;99.90;;;8.51;94.89;103242.06;5074546;28;20075;-62
2022/01/17 09:03:23;;;;;;;39.42;9.35;;;8.60;99.90;;;8.76;95.47;103282.72;5074420;28;20045;-62
2022/01/17 09:05:53;;;;;;;36.35;8.90;;;8.60;99.90;;;8.38;95.01;103218.66;5073427;28;20056;-61
2022/01/17 09:08:22;;;;;;;50.67;9.30;;;8.60;99.90;;;8.80;94.74;103299.59;5074314;28;20131;-61
2022/01/17 09:10:54;;;;;;;38.72;8.30;;;8.70;99.90;;;8.64;95.07;103274.28;5073166;28;20060;-61
2022/01/17 09:13:23;;;;;;;47.67;10.02;;;8.70;99.90;;;8.75;95.28;103307.28;5073754;28;20057;-61
2022/01/17 09:15:53;;;;;;;38.08;9.15;;;8.60;99.90;;;8.76;95.06;103317.03;5074176;28;20049;-61
2022/01/17 09:18:24;;;;;;;42.47;9.48;;;8.60;99.90;;;8.87;94.50;103320.09;5074158;28;20040;-61
2022/01/17 09:20:53;;;;;;;41.40;8.35;;;8.70;99.90;;;8.90;94.20;103313.19;5073800;28;20040;-63
2022/01/17 09:23:22;;;;;;;35.88;9.77;;;8.80;99.90;;;8.58;94.80;103289.84;5074162;28;20131;-63
2022/01/17 09:25:52;;;;;;;40.03;8.52;;;8.70;99.90;;;8.89;94.78;103323.72;5074071;28;20060;-63
2022/01/17 09:28:21;;;;;;;49.85;9.02;;;8.80;99.90;;;8.93;94.40;103338.84;5074078;28;20143;-63
2022/01/17 09:30:51;;;;;;;40.50;8.60;;;8.80;99.90;;;8.67;94.42;103302.56;5073656;28;20059;-60
2022/01/17 09:33:20;;;;;;;44.63;9.18;;;8.80;99.90;;;8.85;94.58;103337.59;5073692;28;20071;-62
2022/01/17 09:35:50;;;;;;;39.15;8.98;;;8.80;99.90;;;8.98;94.25;103337.31;5073290;28;20068;-62
2022/01/17 09:38:19;;;;;;;48.35;9.60;;;8.80;99.90;;;8.85;94.54;103332.34;5073445;28;20037;-61
2022/01/17 09:40:48;;;;;;;37.30;9.35;;;8.80;99.90;;;8.74;94.53;103305.50;5072208;28;20059;-63
2022/01/17 09:43:37;;;;;;;39.80;9.45;;;8.80;99.90;;;8.86;94.47;103327.16;5073276;28;20486;-63
2022/01/17 09:46:09;;;;;;;41.17;9.70;;;8.80;99.90;;;8.85;94.69;103325.31;5073491;28;20067;-61
2022/01/17 09:48:39;;;;;;;39.17;8.85;;;8.80;99.90;;;8.88;94.13;103287.59;5073403;28;20037;-60
2022/01/17 09:51:18;;;;;;;;;;;9.00;99.90;;;9.24;93.78;103352.47;5073813;28;20049;-61
2022/01/17 09:53:52;;;;;;;40.90;8.95;;;9.10;99.90;;;9.29;93.68;103356.19;5073097;28;20275;-60
2022/01/17 09:56:21;;;;;;;46.25;9.27;;;9.20;99.90;;;9.32;93.22;103361.63;5072953;28;20041;-61
2022/01/17 09:58:52;;;;;;;46.72;8.02;;;9.20;99.90;;;9.26;92.83;103364.00;5071742;28;20159;-61
2022/01/17 10:01:21;;;;;;;39.97;9.60;;;9.20;99.90;;;9.18;93.28;103354.84;5073138;28;20169;-61
2022/01/17 10:03:51;;;;;;;46.55;9.10;;;9.20;99.90;;;9.23;93.39;103361.25;5073133;28;20053;-61
2022/01/17 10:06:21;;;;;;;39.90;8.25;;;9.10;99.90;;;9.48;93.10;103364.03;5072830;28;20044;-61
2022/01/17 10:08:49;;;;;;;38.73;8.50;;;9.20;99.90;;;9.24;93.14;103362.13;5073702;28;20040;-63
2022/01/17 10:11:18;;;;;;;38.05;9.18;;;9.20;99.90;;;9.30;93.02;103370.31;5072748;28;20294;-62
2022/01/17 10:13:47;;;;;;;39.42;8.77;;;9.10;99.90;;;9.49;93.17;103381.69;5073473;28;20091;-62
2022/01/17 10:16:19;;;;;;;44.03;8.50;;;9.30;99.90;;;9.39;92.80;103378.63;5072606;28;20378;-62
2022/01/17 10:18:54;;;;;;;35.95;8.48;;;9.30;99.90;;;9.40;93.05;103373.38;5073152;28;20056;-62
2022/01/17 10:21:39;;;;;;;41.78;9.30;;;9.30;99.90;;;9.32;93.08;103382.75;5073156;28;20055;-62
2022/01/17 10:24:22;;;;;;;42.42;8.30;;;9.30;99.90;;;9.39;92.61;103390.06;5071402;28;20437;-62
2022/01/17 10:27:08;;;;;;;41.83;7.72;;;9.30;99.90;;;9.37;93.13;103377.66;5072524;28;20118;-62
2022/01/17 10:35:25;;;;;;;38.03;8.50;;;9.40;99.90;;;9.25;92.45;103364.84;5072618;28;20502;-61
2022/01/17 10:38:05;;;;;;;39.50;8.98;;;9.40;99.90;;;9.33;91.76;103383.66;5071813;28;20044;-62
2022/01/17 10:40:40;;;;;;;34.95;8.55;;;9.30;99.90;;;9.49;92.12;103397.53;5072594;28;20048;-61
2022/01/17 10:43:20;;;;;;;52.55;9.02;;;9.40;99.90;;;9.58;91.61;103408.47;5072900;28;20044;-61
2022/01/17 10:45:49;;;;;;;;;;;9.40;99.90;;;9.51;91.40;103385.28;5072844;28;20463;-62
2022/01/17 10:48:18;;;;;;;38.72;8.20;;;9.40;99.90;;;9.41;91.47;103392.75;5072118;28;19921;-61
2022/01/17 10:50:50;;;;;;;36.95;7.60;;;9.40;99.90;;;9.41;91.85;103392.75;5072136;28;20040;-62
2022/01/17 10:53:20;;;;;;;34.05;8.10;;;9.30;99.90;;;9.34;91.99;103402.19;5072845;28;20051;-62